Time;durP1;ratioP1;P1;durP2;ratioP2;P2;SDS_P1;SDS_P2;PMS_P1;PMS_P2;Temp;Humidity;BMP_temperature;BMP_pressure;BME280_temperature;BME280_humidity;BME280_pressure;Samples;Min_cycle;Max_cycle;Signal;HPM_P1;HPM_P2
2023/10/26 00:00:47;;;;;;;4.47;0.82;;;10.00;1.00;;;;;;5108658;28;20051;-81
2023/10/26 00:03:37;;;;;;;2.47;0.90;;;10.10;1.00;;;;;;5098112;28;20071;-81
2023/10/26 00:06:29;;;;;;;2.50;1.10;;;10.20;1.00;;;;;;5097067;28;20145;-82
2023/10/26 00:09:16;;;;;;;1.08;0.90;;;10.20;1.00;;;;;;5102194;28;20058;-81
2023/10/26 00:12:06;;;;;;;3.42;1.17;;;10.30;1.00;;;;;;5109954;28;20043;-81
2023/10/26 00:14:56;;;;;;;1.67;0.80;;;10.30;99.90;;;;;;5098528;28;20128;-81
2023/10/26 00:17:43;;;;;;;3.22;1.38;;;10.30;99.90;;;;;;5105002;27;20461;-81
2023/10/26 00:20:36;;;;;;;3.35;0.80;;;10.30;99.90;;;;;;5085044;28;20036;-80
2023/10/26 00:23:25;;;;;;;5.50;1.27;;;10.20;99.90;;;;;;5074100;28;20067;-81
2023/10/26 00:26:15;;;;;;;4.22;0.90;;;10.30;99.90;;;;;;5091864;28;20063;-80
2023/10/26 00:29:07;;;;;;;5.45;1.10;;;10.30;99.90;;;;;;5079512;28;20048;-81
2023/10/26 00:31:54;;;;;;;1.52;1.08;;;10.20;99.90;;;;;;5089636;28;20071;-82
2023/10/26 00:34:44;;;;;;;1.17;0.80;;;10.20;40.20;;;;;;5077917;28;20048;-80
2023/10/26 00:37:31;;;;;;;3.95;1.00;;;10.20;1.00;;;;;;5076615;28;20590;-80
2023/10/26 00:40:21;;;;;;;3.33;0.90;;;10.20;1.00;;;;;;5080702;28;20123;-80
2023/10/26 00:43:20;;;;;;;1.70;1.05;;;10.20;1.00;;;;;;5088854;28;20482;-81
2023/10/26 00:46:10;;;;;;;2.20;1.00;;;10.10;99.90;;;;;;5103961;28;20462;-78
2023/10/26 00:48:58;;;;;;;1.40;1.00;;;10.10;99.90;;;;;;5091206;28;20062;-82
2023/10/26 00:51:51;;;;;;;1.38;0.75;;;10.10;99.90;;;;;;5104543;28;20043;-81
2023/10/26 00:54:41;;;;;;;1.52;0.80;;;10.00;99.90;;;;;;5105172;28;20104;-80
2023/10/26 00:57:30;;;;;;;3.58;1.17;;;10.00;99.90;;;;;;5099697;28;20036;-78
2023/10/26 01:00:17;;;;;;;2.75;0.95;;;9.90;99.90;;;;;;5097551;28;20043;-81
2023/10/26 01:03:07;;;;;;;2.72;0.82;;;9.90;99.90;;;;;;5107698;28;20134;-81
2023/10/26 01:05:57;;;;;;;3.95;1.25;;;9.90;99.90;;;;;;5096183;28;20367;-81
2023/10/26 01:08:46;;;;;;;1.98;0.90;;;9.80;99.90;;;;;;5090914;28;20604;-81
2023/10/26 01:11:37;;;;;;;3.97;1.10;;;9.80;99.90;;;;;;5117295;28;20146;-81
2023/10/26 01:14:27;;;;;;;2.85;1.00;;;9.70;99.90;;;;;;5098322;28;20071;-81
2023/10/26 01:17:15;;;;;;;2.35;1.05;;;9.70;99.90;;;;;;5088672;28;20040;-81
2023/10/26 01:20:06;;;;;;;1.13;0.80;;;9.60;1.00;;;;;;5100240;28;20043;-81
2023/10/26 01:22:53;;;;;;;3.45;1.10;;;9.50;99.90;;;;;;5102660;28;20048;-80
2023/10/26 01:25:52;;;;;;;10.25;1.70;;;9.50;99.90;;;;;;5079000;28;20039;-81
2023/10/26 01:28:45;;;;;;;2.30;0.93;;;9.40;99.90;;;;;;5101623;28;20040;-80
2023/10/26 01:31:32;;;;;;;1.95;1.00;;;9.30;1.00;;;;;;5092471;28;20062;-80
2023/10/26 01:34:22;;;;;;;4.18;1.08;;;9.20;1.00;;;;;;5101159;28;20040;-81
2023/10/26 01:37:11;;;;;;;4.60;1.10;;;9.20;24.80;;;;;;5085196;28;20115;-81
2023/10/26 01:40:00;;;;;;;2.38;1.10;;;9.10;81.40;;;;;;5104611;28;20040;-81
2023/10/26 01:42:47;;;;;;;5.25;1.23;;;9.10;99.90;;;;;;5093595;28;20035;-81
2023/10/26 01:45:37;;;;;;;4.55;1.40;;;9.00;99.90;;;;;;5101557;28;20417;-81
2023/10/26 01:48:27;;;;;;;3.45;1.38;;;9.00;99.90;;;;;;5084262;28;20423;-81
2023/10/26 01:51:14;;;;;;;3.53;1.15;;;8.90;99.90;;;;;;5083479;28;20032;-81
2023/10/26 01:54:02;;;;;;;3.50;1.30;;;8.90;99.90;;;;;;5087341;28;20071;-81
2023/10/26 01:56:49;;;;;;;3.92;1.02;;;8.80;99.90;;;;;;5089944;28;20050;-81
2023/10/26 01:59:36;;;;;;;6.97;1.33;;;8.80;99.90;;;;;;5103233;28;20059;-81
2023/10/26 02:02:26;;;;;;;2.63;1.50;;;8.80;99.90;;;;;;5094591;28;20407;-81
2023/10/26 02:05:19;;;;;;;9.55;1.45;;;8.70;99.90;;;;;;5091624;28;20100;-80
2023/10/26 02:08:08;;;;;;;;;;;8.70;99.90;;;;;;5079971;28;20540;-83
2023/10/26 02:10:58;;;;;;;3.78;1.30;;;8.70;99.90;;;;;;5080987;28;20359;-81
2023/10/26 02:13:48;;;;;;;2.95;1.10;;;8.70;99.90;;;;;;5087689;28;20033;-81
2023/10/26 02:16:35;;;;;;;4.43;1.40;;;8.70;99.90;;;;;;5065075;28;20043;-82
2023/10/26 02:19:23;;;;;;;1.98;1.13;;;8.70;99.90;;;;;;5079610;28;20051;-82
2023/10/26 02:22:10;;;;;;;2.05;1.33;;;8.70;99.90;;;;;;5093829;28;20044;-82
2023/10/26 02:24:59;;;;;;;5.03;1.10;;;8.70;99.90;;;;;;5085627;28;20372;-81
2023/10/26 02:27:51;;;;;;;1.52;1.00;;;8.60;99.90;;;;;;5091069;28;20055;-78
2023/10/26 02:30:38;;;;;;;4.40;1.63;;;8.50;99.90;;;;;;5084411;28;20109;-81
2023/10/26 02:33:28;;;;;;;2.78;1.20;;;8.40;99.90;;;;;;5079155;28;20400;-82
2023/10/26 02:36:15;;;;;;;7.40;1.50;;;8.40;99.90;;;;;;5101818;28;20047;-82
2023/10/26 02:39:03;;;;;;;5.50;1.33;;;8.40;99.90;;;;;;5095895;28;20396;-81
2023/10/26 02:41:51;;;;;;;3.42;1.55;;;8.30;99.90;;;;;;5084531;28;20177;-81
2023/10/26 02:44:40;;;;;;;2.13;1.35;;;8.20;99.90;;;;;;5094834;28;20068;-81
2023/10/26 02:47:28;;;;;;;6.95;1.60;;;8.20;99.90;;;;;;5071669;28;20124;-82
2023/10/26 02:50:15;;;;;;;4.47;1.40;;;8.10;99.90;;;;;;5092526;28;20044;-81
2023/10/26 02:53:03;;;;;;;4.32;1.80;;;8.10;99.90;;;;;;5086888;28;20059;-81
2023/10/26 02:55:52;;;;;;;4.72;1.42;;;8.10;99.90;;;;;;5061524;28;20365;-81
2023/10/26 02:58:42;;;;;;;1.45;1.20;;;8.10;99.90;;;;;;5062957;28;20048;-81
2023/10/26 03:01:33;;;;;;;5.97;1.27;;;8.10;99.90;;;;;;5073953;28;20036;-81
2023/10/26 03:04:25;;;;;;;5.40;1.50;;;8.10;99.90;;;;;;5084650;28;20121;-81
2023/10/26 03:07:22;;;;;;;4.43;1.48;;;8.10;99.90;;;;;;5069218;28;20059;-81
2023/10/26 03:10:09;;;;;;;2.38;1.23;;;8.10;99.90;;;;;;5077679;28;20046;-81
2023/10/26 03:12:59;;;;;;;3.88;1.50;;;8.20;99.90;;;;;;5092829;28;20131;-82
2023/10/26 03:15:46;;;;;;;2.40;1.20;;;8.10;99.90;;;;;;5078563;28;20055;-82
2023/10/26 03:18:33;;;;;;;1.55;1.00;;;8.10;99.90;;;;;;5066474;28;20036;-81
2023/10/26 03:21:23;;;;;;;2.35;1.50;;;8.00;99.90;;;;;;5102102;28;20379;-79
2023/10/26 03:24:10;;;;;;;4.13;1.42;;;7.90;99.90;;;;;;5077628;28;20063;-82
2023/10/26 03:27:03;;;;;;;3.35;1.30;;;7.90;99.90;;;;;;5081234;28;20182;-81
2023/10/26 03:29:52;;;;;;;3.30;1.42;;;7.90;99.90;;;;;;5059521;28;20044;-80
2023/10/26 03:32:40;;;;;;;3.67;1.63;;;7.90;99.90;;;;;;5082553;28;20523;-81
2023/10/26 03:35:27;;;;;;;3.05;1.50;;;8.00;99.90;;;;;;5083009;28;20059;-81
2023/10/26 03:38:14;;;;;;;8.88;1.88;;;8.00;99.90;;;;;;5066011;28;20098;-81
2023/10/26 03:41:06;;;;;;;4.28;1.65;;;8.10;99.90;;;;;;5092070;28;20055;-80
2023/10/26 03:43:54;;;;;;;2.00;1.20;;;8.10;99.90;;;;;;5065174;28;20531;-81
2023/10/26 03:46:46;;;;;;;3.13;1.38;;;8.10;99.90;;;;;;5091199;28;20052;-81
2023/10/26 03:49:36;;;;;;;3.03;1.50;;;8.10;99.90;;;;;;5090469;28;20048;-82
2023/10/26 03:52:26;;;;;;;2.97;1.40;;;8.10;99.90;;;;;;5084051;28;20048;-81
2023/10/26 03:55:13;;;;;;;6.03;1.35;;;8.10;99.90;;;;;;5085729;28;20047;-80
2023/10/26 03:58:03;;;;;;;4.18;1.35;;;8.10;99.90;;;;;;5083837;28;20072;-81
2023/10/26 04:00:51;;;;;;;1.15;1.05;;;8.20;99.90;;;;;;5081522;28;20039;-81
2023/10/26 04:03:38;;;;;;;2.35;1.08;;;8.20;99.90;;;;;;5087896;28;20036;-81
2023/10/26 04:06:29;;;;;;;5.72;1.30;;;8.30;99.90;;;;;;5097769;28;20428;-80
2023/10/26 04:09:19;;;;;;;3.03;1.40;;;8.30;99.90;;;;;;5083102;28;20448;-79
2023/10/26 04:12:07;;;;;;;2.25;1.10;;;8.30;99.90;;;;;;5082489;28;20036;-82
2023/10/26 04:14:55;;;;;;;3.20;1.55;;;8.40;99.90;;;;;;5077133;28;20094;-81
2023/10/26 04:17:44;;;;;;;3.58;1.30;;;8.40;99.90;;;;;;5090890;28;20126;-81
2023/10/26 04:20:32;;;;;;;2.67;1.27;;;8.40;99.90;;;;;;5077566;28;20481;-81
2023/10/26 04:23:19;;;;;;;3.08;1.33;;;8.40;99.90;;;;;;5093059;28;20108;-80
2023/10/26 04:26:11;;;;;;;3.97;1.50;;;8.40;99.90;;;;;;5087837;28;20044;-80
2023/10/26 04:29:00;;;;;;;2.88;1.20;;;8.50;99.90;;;;;;5069110;28;20456;-81
2023/10/26 04:31:48;;;;;;;4.28;1.45;;;8.40;99.90;;;;;;5091655;28;20043;-81
2023/10/26 04:34:43;;;;;;;5.80;1.40;;;8.40;99.90;;;;;;5071119;28;20071;-81
2023/10/26 04:37:31;;;;;;;2.97;1.30;;;8.40;99.90;;;;;;5089678;28;20085;-80
2023/10/26 04:40:21;;;;;;;6.65;1.60;;;8.40;99.90;;;;;;5088767;28;20039;-81
2023/10/26 04:43:10;;;;;;;2.50;1.38;;;8.40;99.90;;;;;;5091339;28;20039;-79
2023/10/26 04:46:00;;;;;;;8.23;1.40;;;8.40;99.90;;;;;;5099560;28;20092;-79
2023/10/26 04:48:48;;;;;;;2.17;1.38;;;8.40;99.90;;;;;;5091012;28;20115;-80
2023/10/26 04:51:37;;;;;;;5.18;1.25;;;8.30;99.90;;;;;;5090336;28;20044;-80
2023/10/26 04:54:32;;;;;;;4.38;1.77;;;8.30;99.90;;;;;;5058918;28;20044;-79
2023/10/26 04:57:19;;;;;;;5.43;1.70;;;8.40;99.90;;;;;;5078303;28;20374;-80
2023/10/26 05:00:10;;;;;;;5.13;1.98;;;8.40;99.90;;;;;;5091922;28;20601;-81
2023/10/26 05:02:57;;;;;;;4.60;1.98;;;8.40;99.90;;;;;;5079193;28;20052;-82
2023/10/26 05:05:45;;;;;;;9.18;1.95;;;8.30;99.90;;;;;;5086466;28;20039;-81
2023/10/26 05:08:32;;;;;;;6.00;1.77;;;8.40;99.90;;;;;;5085567;28;20071;-81
2023/10/26 05:11:23;;;;;;;3.85;1.98;;;8.40;99.90;;;;;;5074053;28;20059;-81
2023/10/26 05:14:10;;;;;;;5.03;1.80;;;8.40;99.90;;;;;;5072361;28;20044;-81
2023/10/26 05:16:57;;;;;;;8.50;1.65;;;8.50;99.90;;;;;;5086082;28;20040;-81
2023/10/26 05:19:44;;;;;;;2.53;1.48;;;8.60;99.90;;;;;;5093161;28;20183;-80
2023/10/26 05:22:34;;;;;;;5.10;1.42;;;8.60;99.90;;;;;;5092887;28;20105;-80
2023/10/26 05:25:24;;;;;;;3.38;1.60;;;8.70;99.90;;;;;;5084204;28;20066;-81
2023/10/26 05:28:12;;;;;;;3.30;1.80;;;8.80;99.90;;;;;;5081256;28;20044;-80
2023/10/26 05:30:59;;;;;;;4.10;1.85;;;8.80;99.90;;;;;;5094808;28;20420;-80
2023/10/26 05:33:47;;;;;;;4.35;1.65;;;9.00;99.90;;;;;;5094405;28;20441;-81
2023/10/26 05:36:34;;;;;;;3.95;1.60;;;9.10;99.90;;;;;;5074167;28;20032;-81
2023/10/26 05:39:21;;;;;;;3.75;1.40;;;9.00;99.90;;;;;;5094204;28;20052;-82
2023/10/26 05:42:11;;;;;;;2.65;1.60;;;9.10;99.90;;;;;;5080428;28;20099;-81
2023/10/26 05:44:59;;;;;;;6.15;1.65;;;9.10;99.90;;;;;;5086688;28;20059;-81
2023/10/26 05:47:51;;;;;;;4.50;1.38;;;9.20;99.90;;;;;;5094501;28;20467;-81
2023/10/26 05:50:43;;;;;;;4.80;1.80;;;9.10;99.90;;;;;;5093679;28;20063;-81
2023/10/26 05:53:30;;;;;;;6.07;1.63;;;9.10;99.90;;;;;;5087035;28;20058;-81
2023/10/26 05:56:20;;;;;;;4.75;1.75;;;9.10;99.90;;;;;;5074652;28;20040;-81
2023/10/26 05:59:07;;;;;;;6.72;1.70;;;9.10;99.90;;;;;;5094877;28;20080;-80
2023/10/26 06:01:55;;;;;;;2.58;1.50;;;9.10;99.90;;;;;;5091679;28;20055;-81
2023/10/26 06:04:44;;;;;;;3.15;1.40;;;9.10;99.90;;;;;;5099909;28;20043;-81
2023/10/26 06:07:39;;;;;;;3.97;1.75;;;9.10;99.90;;;;;;5091366;28;20466;-80
2023/10/26 06:10:26;;;;;;;1.98;1.45;;;9.20;99.90;;;;;;5081613;28;20067;-81
2023/10/26 06:13:16;;;;;;;4.40;1.60;;;9.20;99.90;;;;;;5091937;28;20044;-80
2023/10/26 06:16:06;;;;;;;2.63;1.38;;;9.20;99.90;;;;;;5096058;28;20040;-82
2023/10/26 06:18:55;;;;;;;2.85;1.77;;;9.20;99.90;;;;;;5061655;28;20041;-81
2023/10/26 06:21:47;;;;;;;2.58;1.80;;;9.30;99.90;;;;;;5093659;28;20135;-81
2023/10/26 06:24:34;;;;;;;4.07;1.95;;;9.30;99.90;;;;;;5093107;28;20075;-79
2023/10/26 06:27:22;;;;;;;3.42;2.03;;;9.30;99.90;;;;;;5093533;28;20044;-82
2023/10/26 06:30:09;;;;;;;5.57;1.60;;;9.30;99.90;;;;;;5080269;28;20040;-81
2023/10/26 06:33:00;;;;;;;3.80;1.60;;;9.40;99.90;;;;;;5078390;28;20096;-81
2023/10/26 06:35:49;;;;;;;4.03;1.35;;;9.40;99.90;;;;;;5085263;28;20079;-81
2023/10/26 06:38:40;;;;;;;2.47;1.63;;;9.40;99.90;;;;;;5093035;28;20044;-81
2023/10/26 06:41:28;;;;;;;5.38;2.60;;;9.40;99.90;;;;;;5087578;28;20187;-80
2023/10/26 06:44:17;;;;;;;4.72;1.58;;;9.40;99.90;;;;;;5092116;28;20325;-81
2023/10/26 06:47:04;;;;;;;3.85;1.85;;;9.50;99.90;;;;;;5078093;28;20059;-80
2023/10/26 06:49:52;;;;;;;3.13;1.77;;;9.50;99.90;;;;;;5073076;28;20048;-80
2023/10/26 06:52:39;;;;;;;3.78;1.67;;;9.50;99.90;;;;;;5081505;28;20467;-80
2023/10/26 06:55:33;;;;;;;4.97;1.70;;;9.50;99.90;;;;;;5091517;28;20056;-80
2023/10/26 06:58:21;;;;;;;1.85;1.40;;;9.50;99.90;;;;;;5083646;28;20041;-80
2023/10/26 07:01:08;;;;;;;3.35;1.50;;;9.50;99.90;;;;;;5090698;28;20059;-81
2023/10/26 07:04:06;;;;;;;5.22;1.85;;;9.50;99.90;;;;;;5081839;28;20051;-80
2023/10/26 07:06:54;;;;;;;2.78;1.70;;;9.60;99.90;;;;;;5077485;28;20194;-80
2023/10/26 07:09:41;;;;;;;10.20;3.88;;;9.60;99.90;;;;;;5092748;28;20074;-80
2023/10/26 07:12:34;;;;;;;3.30;1.70;;;9.60;99.90;;;;;;5080138;28;20041;-80
2023/10/26 07:15:23;;;;;;;2.60;1.88;;;9.60;99.90;;;;;;5073501;28;20040;-79
2023/10/26 07:18:11;;;;;;;3.17;1.80;;;9.50;99.90;;;;;;5090034;28;20197;-80
2023/10/26 07:21:12;;;;;;;3.25;2.00;;;9.50;99.90;;;;;;5081889;28;20048;-80
2023/10/26 07:24:07;;;;;;;4.00;1.73;;;9.60;99.90;;;;;;5092464;28;20044;-81
2023/10/26 07:26:54;;;;;;;4.72;1.90;;;9.50;99.90;;;;;;5081158;28;20040;-81
2023/10/26 07:29:41;;;;;;;4.60;1.60;;;9.60;99.90;;;;;;5089692;28;20060;-81
2023/10/26 07:32:31;;;;;;;3.58;1.85;;;9.60;99.90;;;;;;5080737;28;20037;-82
2023/10/26 07:35:24;;;;;;;6.72;1.67;;;9.60;99.90;;;;;;5079469;28;20060;-82
2023/10/26 07:38:16;;;;;;;4.00;1.50;;;9.60;99.90;;;;;;5081089;28;20055;-82
2023/10/26 07:41:25;;;;;;;4.93;1.60;;;9.70;99.90;;;;;;5070930;28;20429;-81
2023/10/26 07:44:33;;;;;;;4.93;1.75;;;9.80;99.90;;;;;;5080643;28;20059;-81
2023/10/26 07:47:21;;;;;;;2.25;1.50;;;9.80;99.90;;;;;;5074151;28;20131;-80
2023/10/26 07:50:09;;;;;;;2.17;1.58;;;9.80;99.90;;;;;;5100748;28;20105;-82
2023/10/26 07:53:01;;;;;;;3.15;1.85;;;9.90;99.90;;;;;;5090579;28;20067;-81
2023/10/26 07:55:50;;;;;;;4.10;1.95;;;9.90;99.90;;;;;;5077446;28;20058;-81
2023/10/26 07:58:37;;;;;;;2.15;1.73;;;9.90;99.90;;;;;;5089654;28;20154;-80
2023/10/26 08:01:25;;;;;;;4.47;1.92;;;9.90;99.90;;;;;;5089474;28;20410;-79
2023/10/26 08:04:12;;;;;;;4.82;1.73;;;9.90;99.90;;;;;;5107805;28;20074;-81
2023/10/26 08:07:02;;;;;;;1.90;1.80;;;10.00;99.90;;;;;;5091599;28;20052;-80
2023/10/26 08:09:56;;;;;;;1.92;1.50;;;10.00;99.90;;;;;;5074619;28;20423;-79
2023/10/26 08:12:44;;;;;;;4.55;1.70;;;10.00;99.90;;;;;;5092514;28;20460;-80
2023/10/26 08:15:34;;;;;;;3.20;2.13;;;10.10;99.90;;;;;;5089157;28;20102;-80
2023/10/26 08:18:42;;;;;;;1.73;1.60;;;10.10;99.90;;;;;;5081927;28;20071;-80
2023/10/26 08:21:30;;;;;;;3.53;1.60;;;10.10;99.90;;;;;;5089158;28;20044;-78
2023/10/26 08:24:18;;;;;;;2.08;1.63;;;10.10;99.90;;;;;;5096825;28;20475;-80
2023/10/26 08:27:07;;;;;;;3.42;1.90;;;10.20;99.90;;;;;;5083128;28;20055;-80
2023/10/26 08:29:55;;;;;;;2.35;1.90;;;10.30;99.90;;;;;;5078632;28;20048;-81
2023/10/26 08:32:44;;;;;;;2.45;1.67;;;10.30;99.90;;;;;;5072047;28;20051;-80
2023/10/26 08:35:36;;;;;;;2.88;1.42;;;10.30;99.90;;;;;;5084550;28;20062;-80
2023/10/26 08:38:25;;;;;;;4.00;1.80;;;10.40;99.90;;;;;;5090431;28;20085;-80
2023/10/26 08:41:13;;;;;;;9.90;5.05;;;10.50;99.90;;;;;;5083087;28;20040;-82
2023/10/26 08:44:03;;;;;;;2.47;1.33;;;10.60;99.90;;;;;;5074661;28;20044;-78
2023/10/26 08:46:57;;;;;;;3.78;1.40;;;10.60;99.90;;;;;;5091065;28;20232;-81
2023/10/26 08:49:48;;;;;;;4.18;2.03;;;10.70;99.90;;;;;;5070633;28;20472;-80
2023/10/26 08:52:57;;;;;;;3.42;1.40;;;10.70;99.90;;;;;;5081642;28;20032;-81
2023/10/26 08:55:51;;;;;;;2.33;1.20;;;10.70;99.90;;;;;;5081804;28;20040;-80
2023/10/26 08:58:43;;;;;;;2.83;1.45;;;10.70;99.90;;;;;;5073552;28;20036;-81
2023/10/26 09:01:33;;;;;;;1.60;1.50;;;10.70;99.90;;;;;;5086219;28;20059;-80
2023/10/26 09:04:25;;;;;;;2.55;1.50;;;10.80;99.90;;;;;;5091016;28;20051;-79
2023/10/26 09:07:25;;;;;;;1.50;1.40;;;10.80;99.90;;;;;;5071321;28;20106;-81
2023/10/26 09:10:27;;;;;;;4.72;2.05;;;10.80;99.90;;;;;;5084278;28;20071;-81
2023/10/26 09:13:26;;;;;;;2.70;1.50;;;10.70;99.90;;;;;;5069292;28;20498;-80
2023/10/26 09:16:15;;;;;;;4.57;2.22;;;10.70;99.90;;;;;;5076170;28;20056;-78
2023/10/26 09:19:04;;;;;;;1.63;1.50;;;10.70;99.90;;;;;;5067657;28;20415;-81
2023/10/26 09:21:53;;;;;;;2.03;1.38;;;10.60;99.90;;;;;;5063132;28;20048;-80
2023/10/26 09:24:40;;;;;;;1.42;1.30;;;10.60;99.90;;;;;;5087724;28;20060;-81
2023/10/26 09:27:31;;;;;;;2.63;1.70;;;10.60;99.90;;;;;;5090594;28;20408;-82
2023/10/26 09:30:25;;;;;;;2.33;1.48;;;10.60;99.90;;;;;;5062321;28;20049;-81
2023/10/26 09:33:25;;;;;;;2.85;1.77;;;10.60;99.90;;;;;;5091555;28;20115;-82
2023/10/26 09:36:15;;;;;;;1.60;1.40;;;10.50;99.90;;;;;;5082226;28;20091;-80
2023/10/26 09:39:08;;;;;;;6.57;1.60;;;10.40;99.90;;;;;;5070705;28;20137;-82
2023/10/26 09:42:01;;;;;;;2.70;2.45;;;10.40;99.90;;;;;;5079893;28;20460;-82
2023/10/26 09:44:51;;;;;;;3.83;2.88;;;10.40;99.90;;;;;;5095269;28;20475;-82
2023/10/26 09:47:41;;;;;;;4.15;2.28;;;10.40;99.90;;;;;;5090487;28;20048;-83
2023/10/26 09:50:37;;;;;;;5.80;2.63;;;10.40;99.90;;;;;;5094716;28;20194;-82
2023/10/26 09:53:25;;;;;;;4.18;2.40;;;10.40;99.90;;;;;;5090528;28;20482;-83
2023/10/26 09:56:20;;;;;;;4.63;2.47;;;10.50;99.90;;;;;;5085630;28;20051;-82
2023/10/26 09:59:08;;;;;;;2.67;2.45;;;10.60;99.90;;;;;;5074801;28;20055;-83
2023/10/26 10:01:55;;;;;;;3.53;2.03;;;10.60;99.90;;;;;;5076187;28;20083;-82
2023/10/26 10:04:46;;;;;;;2.75;2.00;;;10.60;99.90;;;;;;5093342;28;20054;-81
2023/10/26 10:07:43;;;;;;;3.42;2.40;;;10.80;99.90;;;;;;5099114;28;20078;-82
2023/10/26 10:10:32;;;;;;;5.35;3.10;;;10.80;99.90;;;;;;5066171;28;20047;-82
2023/10/26 10:13:38;;;;;;;5.45;4.30;;;10.80;99.90;;;;;;5089181;28;20573;-84
2023/10/26 10:16:34;;;;;;;4.65;4.25;;;10.80;99.90;;;;;;5094805;28;20048;-82
2023/10/26 10:19:26;;;;;;;4.78;4.10;;;10.90;99.90;;;;;;5089173;28;20189;-83
2023/10/26 10:22:38;;;;;;;3.92;3.53;;;11.00;99.90;;;;;;5082513;28;20104;-82
2023/10/26 10:25:50;;;;;;;3.75;3.35;;;11.10;99.90;;;;;;5073479;28;20131;-83
2023/10/26 10:28:50;;;;;;;3.85;2.90;;;11.30;99.90;;;;;;5075768;28;20040;-82
2023/10/26 10:31:41;;;;;;;2.88;2.50;;;11.50;99.90;;;;;;5078262;28;20048;-82
2023/10/26 10:34:31;;;;;;;3.83;3.42;;;11.60;99.90;;;;;;5059006;28;20384;-83
2023/10/26 10:37:21;;;;;;;5.70;3.58;;;11.60;99.90;;;;;;5073148;28;20131;-83
2023/10/26 10:40:13;;;;;;;2.83;2.28;;;11.70;99.90;;;;;;5065310;28;20047;-81
2023/10/26 10:43:01;;;;;;;10.13;4.70;;;11.80;99.90;;;;;;5092455;28;20048;-81
2023/10/26 10:45:48;;;;;;;4.32;1.92;;;11.80;99.90;;;;;;5092163;28;20048;-82
2023/10/26 10:48:36;;;;;;;1.67;1.45;;;11.90;99.90;;;;;;5093364;28;20169;-82
2023/10/26 10:51:38;;;;;;;2.05;1.17;;;12.00;99.90;;;;;;5102237;28;20045;-82
2023/10/26 10:54:25;;;;;;;1.95;1.50;;;12.00;99.90;;;;;;5063111;28;20040;-82
2023/10/26 10:57:33;;;;;;;1.50;1.40;;;12.10;99.90;;;;;;5065113;28;20060;-82
2023/10/26 11:00:23;;;;;;;1.50;1.30;;;12.10;99.90;;;;;;5089612;28;20052;-80
2023/10/26 11:03:23;;;;;;;1.63;1.17;;;12.00;99.90;;;;;;5081137;28;20048;-80
2023/10/26 11:06:13;;;;;;;3.22;1.30;;;12.00;99.90;;;;;;5092590;28;20536;-84
2023/10/26 11:09:01;;;;;;;2.40;1.40;;;11.90;99.90;;;;;;5076414;28;20135;-84
2023/10/26 11:11:48;;;;;;;2.78;2.45;;;11.90;99.90;;;;;;5086639;28;20054;-84
2023/10/26 11:14:35;;;;;;;3.83;1.63;;;11.90;99.90;;;;;;5078204;28;20463;-83
2023/10/26 11:17:26;;;;;;;4.13;1.30;;;11.80;99.90;;;;;;5081603;28;20468;-83
2023/10/26 11:20:41;;;;;;;1.55;1.33;;;11.80;99.90;;;;;;5080686;28;20191;-82
2023/10/26 11:23:29;;;;;;;2.72;1.83;;;11.90;99.90;;;;;;5091900;28;20376;-83
2023/10/26 11:26:19;;;;;;;4.55;1.90;;;12.10;99.90;;;;;;5096190;28;20063;-83
2023/10/26 11:29:16;;;;;;;1.88;1.70;;;12.10;99.90;;;;;;5071701;28;20094;-83
2023/10/26 11:32:16;;;;;;;3.35;1.80;;;12.10;99.90;;;;;;5064871;28;20049;-82
2023/10/26 11:35:08;;;;;;;2.97;2.05;;;12.20;99.90;;;;;;5082890;28;20040;-83
2023/10/26 11:38:02;;;;;;;4.40;2.40;;;12.50;99.90;;;;;;5085293;28;20041;-82
2023/10/26 11:40:52;;;;;;;3.50;1.88;;;12.60;99.90;;;;;;5110517;27;20059;-83
2023/10/26 11:43:42;;;;;;;3.78;2.28;;;12.70;99.90;;;;;;5092985;28;20040;-83
2023/10/26 11:46:32;;;;;;;3.67;2.20;;;13.30;99.90;;;;;;5092967;28;20051;-83
2023/10/26 11:49:22;;;;;;;4.68;1.80;;;13.70;99.90;;;;;;5066723;28;20047;-83
2023/10/26 11:52:12;;;;;;;2.40;1.60;;;14.30;99.90;;;;;;5088364;28;20127;-83
2023/10/26 11:55:00;;;;;;;2.65;1.27;;;14.70;99.90;;;;;;5087506;28;20090;-81
2023/10/26 11:57:51;;;;;;;2.88;1.42;;;14.80;99.90;;;;;;5090663;28;20100;-83
2023/10/26 12:00:38;;;;;;;1.75;1.30;;;15.10;99.90;;;;;;5084294;28;20123;-82
2023/10/26 12:03:26;;;;;;;2.60;1.60;;;15.50;99.90;;;;;;5089806;28;20059;-81
2023/10/26 12:06:13;;;;;;;1.58;1.20;;;16.30;99.90;;;;;;5087293;28;20138;-82
2023/10/26 12:09:01;;;;;;;1.83;1.08;;;17.30;99.90;;;;;;5078114;28;20313;-82
2023/10/26 12:11:50;;;;;;;2.47;0.88;;;18.50;99.90;;;;;;5085873;28;20045;-83
2023/10/26 12:14:38;;;;;;;3.78;1.08;;;19.10;99.90;;;;;;5094606;28;20133;-82
2023/10/26 12:17:25;;;;;;;2.95;1.00;;;20.20;99.90;;;;;;5088178;28;20113;-82
2023/10/26 12:20:15;;;;;;;1.50;1.00;;;19.30;99.90;;;;;;5094004;28;20051;-83
2023/10/26 12:23:04;;;;;;;3.38;1.30;;;18.30;1.00;;;;;;5077032;28;20048;-82
2023/10/26 12:25:54;;;;;;;5.28;1.77;;;17.00;1.00;;;;;;5089151;28;20052;-81
2023/10/26 12:28:53;;;;;;;6.03;2.17;;;16.60;99.90;;;;;;5087239;28;20067;-83
2023/10/26 12:31:41;;;;;;;5.18;1.52;;;16.30;99.90;;;;;;5081090;28;20048;-82
2023/10/26 12:34:33;;;;;;;6.25;1.05;;;15.90;99.90;;;;;;5081450;28;20060;-82
2023/10/26 12:37:20;;;;;;;3.60;1.40;;;15.70;99.90;;;;;;5076555;28;20126;-80
2023/10/26 12:40:09;;;;;;;4.13;1.30;;;15.60;99.90;;;;;;5086920;28;20055;-82
2023/10/26 12:42:57;;;;;;;4.72;1.55;;;15.70;1.00;;;;;;5076679;28;20044;-80
2023/10/26 12:45:47;;;;;;;3.65;1.38;;;15.70;1.00;;;;;;5089810;28;20054;-80
2023/10/26 12:48:35;;;;;;;7.28;1.70;;;16.60;1.00;;;;;;5077250;28;20051;-82
2023/10/26 12:51:22;;;;;;;4.18;1.52;;;16.60;99.90;;;;;;5089443;28;20531;-80
2023/10/26 12:54:12;;;;;;;3.90;1.20;;;16.40;99.90;;;;;;5058192;28;20114;-82
2023/10/26 12:56:59;;;;;;;4.32;1.77;;;15.90;99.90;;;;;;5065265;28;20455;-82
2023/10/26 12:59:47;;;;;;;7.10;1.63;;;15.70;1.00;;;;;;5074674;28;20218;-81
2023/10/26 13:02:36;;;;;;;6.70;1.67;;;15.40;1.00;;;;;;5083547;28;20039;-81
2023/10/26 13:05:23;;;;;;;8.40;2.17;;;15.30;1.00;;;;;;5071606;28;20044;-82
2023/10/26 13:08:11;;;;;;;12.23;2.40;;;15.30;99.90;;;;;;5090441;28;20474;-81
2023/10/26 13:10:58;;;;;;;8.77;2.33;;;15.20;99.90;;;;;;5089124;28;20052;-82
2023/10/26 13:13:48;;;;;;;9.50;2.42;;;15.00;2.10;;;;;;5075992;28;20032;-82
2023/10/26 13:16:38;;;;;;;8.88;2.05;;;14.90;19.90;;;;;;5082146;28;20052;-81
2023/10/26 13:19:43;;;;;;;7.50;2.20;;;14.70;99.90;;;;;;5081674;28;20044;-81
2023/10/26 13:22:31;;;;;;;11.82;2.80;;;14.70;92.30;;;;;;5086607;28;20047;-81
2023/10/26 13:25:18;;;;;;;14.20;2.67;;;14.60;99.90;;;;;;5085461;28;20349;-83
2023/10/26 13:28:08;;;;;;;12.45;2.33;;;14.60;99.90;;;;;;5093229;28;20048;-80
2023/10/26 13:30:56;;;;;;;12.55;3.13;;;14.50;99.90;;;;;;5074156;28;20049;-81
2023/10/26 13:33:47;;;;;;;14.00;2.90;;;14.50;99.90;;;;;;5078618;28;20649;-81
2023/10/26 13:36:34;;;;;;;11.73;2.40;;;14.40;91.60;;;;;;5097459;28;20032;-79
2023/10/26 13:39:22;;;;;;;12.93;3.22;;;14.30;97.90;;;;;;5101820;28;20051;-81
2023/10/26 13:42:10;;;;;;;14.43;3.03;;;14.30;99.90;;;;;;5095144;28;20050;-80
2023/10/26 13:44:57;;;;;;;17.92;3.08;;;14.30;1.00;;;;;;5078282;28;20054;-81
2023/10/26 13:47:49;;;;;;;11.80;3.20;;;14.40;1.00;;;;;;5080032;28;20063;-81
2023/10/26 13:50:40;;;;;;;12.73;2.65;;;14.40;1.00;;;;;;5065937;28;20044;-82
2023/10/26 13:53:28;;;;;;;14.52;3.20;;;14.50;1.00;;;;;;5096497;28;20047;-81
2023/10/26 13:56:18;;;;;;;14.98;3.55;;;14.40;1.00;;;;;;5079151;28;20059;-81
2023/10/26 13:59:08;;;;;;;10.63;3.10;;;14.40;1.00;;;;;;5110968;28;20094;-81
2023/10/26 14:01:55;;;;;;;7.75;2.47;;;14.30;99.90;;;;;;5097207;28;20063;-81
2023/10/26 14:04:43;;;;;;;20.80;4.07;;;14.10;1.00;;;;;;5078941;28;20047;-81
2023/10/26 14:07:31;;;;;;;13.40;3.60;;;14.00;1.00;;;;;;5080516;28;20045;-81
2023/10/26 14:10:19;;;;;;;10.80;2.63;;;13.90;99.90;;;;;;5116995;28;20134;-80
2023/10/26 14:13:07;;;;;;;9.13;2.65;;;13.70;99.90;;;;;;5089602;28;20044;-80
2023/10/26 14:15:54;;;;;;;5.53;1.85;;;13.50;99.90;;;;;;5079469;28;20593;-80
2023/10/26 14:18:45;;;;;;;8.52;2.33;;;13.50;99.90;;;;;;5084258;28;20036;-80
2023/10/26 14:21:36;;;;;;;8.00;1.80;;;13.40;1.00;;;;;;5093424;28;20118;-81
2023/10/26 14:24:24;;;;;;;5.57;1.70;;;13.30;1.00;;;;;;5092717;28;20493;-80
2023/10/26 14:27:12;;;;;;;6.78;2.00;;;13.30;91.00;;;;;;5079250;28;20040;-80
2023/10/26 14:30:00;;;;;;;5.85;1.63;;;13.30;1.00;;;;;;5091570;28;20135;-79
2023/10/26 14:32:48;;;;;;;6.63;2.10;;;13.30;99.90;;;;;;5102718;28;20123;-79
2023/10/26 14:35:35;;;;;;;6.15;1.65;;;13.30;99.90;;;;;;5088711;28;20036;-80
2023/10/26 14:38:28;;;;;;;5.65;1.80;;;13.30;99.90;;;;;;5092573;28;20344;-79
2023/10/26 14:41:15;;;;;;;5.93;1.70;;;13.30;99.90;;;;;;5078586;28;20032;-80
2023/10/26 14:44:06;;;;;;;6.90;1.90;;;13.30;1.00;;;;;;5072988;28;20067;-79
2023/10/26 14:46:55;;;;;;;5.65;1.90;;;13.30;99.90;;;;;;5074772;28;20040;-80
2023/10/26 14:49:45;;;;;;;7.78;1.95;;;13.30;1.00;;;;;;5090238;28;20048;-81
2023/10/26 14:52:33;;;;;;;6.32;1.58;;;13.30;1.00;;;;;;5084622;28;20041;-81